createdAt,value
2023-01-25T00:00:05.594Z,3.94
2023-01-25T00:01:05.410Z,3.39
2023-01-25T00:02:05.362Z,4.19
2023-01-25T00:03:05.260Z,3.97
2023-01-25T00:04:05.049Z,3.59
2023-01-25T01:15:58.966Z,4.31
2023-01-25T01:16:58.922Z,4.04
2023-01-25T01:17:58.842Z,3.90
2023-01-25T01:18:58.763Z,4.02
2023-01-25T01:19:58.639Z,4.26
2023-01-25T01:20:58.523Z,4.23
2023-01-25T01:22:01.154Z,3.55
2023-01-25T01:22:58.290Z,4.53
2023-01-25T01:23:58.252Z,4.56
2023-01-25T01:24:58.634Z,4.41
2023-01-25T01:25:57.962Z,4.70
2023-01-25T01:26:57.850Z,3.96
2023-01-25T01:27:57.738Z,4.54
2023-01-25T01:28:57.639Z,4.41
2023-01-25T01:29:57.523Z,3.96
2023-01-25T01:30:57.382Z,4.19
2023-01-25T01:31:57.419Z,3.92
2023-01-25T01:32:57.174Z,3.30
2023-01-25T01:33:57.059Z,4.52
2023-01-25T01:34:56.974Z,3.78
2023-01-25T01:35:56.809Z,4.30
2023-01-25T01:36:56.703Z,4.22
2023-01-25T01:37:56.571Z,4.37
2023-01-25T01:38:56.475Z,4.05
2023-01-25T01:39:56.344Z,4.89
2023-01-25T01:40:56.218Z,3.79
2023-01-25T01:41:56.098Z,4.23
2023-01-25T01:42:56.020Z,4.90
2023-01-25T01:43:55.921Z,4.27
2023-01-25T01:44:55.764Z,4.62
2023-01-25T01:45:55.698Z,4.37
2023-01-25T01:46:55.530Z,4.04
2023-01-25T01:47:55.428Z,4.04
2023-01-25T01:48:55.288Z,4.30
2023-01-25T01:49:55.206Z,4.17
2023-01-25T01:50:55.067Z,4.11
2023-01-25T03:18:45.044Z,2.95
2023-01-25T04:28:38.211Z,1.79
2023-01-25T04:29:41.695Z,1.60
2023-01-25T04:30:38.006Z,1.83
2023-01-25T04:31:38.024Z,1.83
2023-01-25T04:32:37.975Z,1.11
2023-01-25T04:33:37.695Z,1.17
2023-01-25T04:34:37.573Z,1.32
2023-01-25T04:35:37.461Z,1.68
2023-01-25T04:36:37.371Z,1.81
2023-01-25T04:37:37.279Z,1.26
2023-01-25T04:38:37.145Z,1.57
2023-01-25T04:39:37.076Z,1.37
2023-01-25T04:40:36.923Z,1.39
2023-01-25T04:41:36.823Z,1.39
2023-01-25T04:42:36.757Z,1.44
2023-01-25T04:43:36.593Z,1.75
2023-01-25T04:44:38.227Z,1.85
2023-01-25T04:45:36.485Z,1.33
2023-01-25T04:46:36.291Z,1.96
2023-01-25T04:47:36.192Z,2.03
2023-01-25T04:48:36.054Z,2.51
2023-01-25T04:49:35.960Z,1.27
2023-01-25T04:50:35.846Z,2.13
2023-01-25T04:51:35.728Z,2.00
2023-01-25T04:52:36.197Z,1.75
2023-01-25T04:53:35.534Z,2.37
2023-01-25T04:54:35.407Z,1.76
2023-01-25T04:55:35.360Z,1.54
2023-01-25T04:56:35.214Z,1.91
2023-01-25T04:57:35.084Z,1.90
2023-01-25T04:58:35.705Z,1.69
2023-01-25T06:26:27.129Z,5.85
2023-01-25T06:27:27.007Z,5.46
2023-01-25T06:28:26.903Z,4.77
2023-01-25T06:29:26.809Z,5.62
2023-01-25T06:30:26.707Z,5.65
2023-01-25T06:31:26.695Z,5.48
2023-01-25T06:32:26.476Z,4.95
2023-01-25T06:33:26.368Z,6.00
2023-01-25T06:34:26.253Z,5.40
2023-01-25T06:35:26.152Z,5.36
2023-01-25T06:36:26.034Z,5.05
2023-01-25T06:37:25.950Z,4.77
2023-01-25T06:38:25.841Z,4.87
2023-01-25T06:39:25.730Z,4.12
2023-01-25T06:40:25.617Z,4.07
2023-01-25T06:41:25.513Z,4.36
2023-01-25T06:42:25.419Z,4.49
2023-01-25T06:43:25.296Z,4.90
2023-01-25T06:44:25.193Z,4.64
2023-01-25T06:45:25.081Z,4.88
2023-01-25T06:53:24.241Z,5.05
2023-01-25T06:54:24.122Z,5.99
2023-01-25T06:55:24.005Z,4.77
2023-01-25T06:56:23.911Z,5.49
2023-01-25T06:57:23.786Z,6.56
2023-01-25T06:58:23.666Z,6.54
2023-01-25T06:59:23.562Z,5.92
2023-01-25T07:00:23.463Z,5.60
2023-01-25T07:01:23.369Z,5.33
2023-01-25T07:02:23.309Z,5.07
2023-01-25T07:03:23.153Z,5.13
2023-01-25T07:04:23.064Z,5.38
2023-01-25T07:05:22.916Z,5.51
2023-01-25T07:06:22.825Z,6.13
2023-01-25T07:07:22.700Z,5.39
2023-01-25T07:08:22.621Z,5.66
2023-01-25T07:09:22.478Z,5.94
2023-01-25T07:10:22.397Z,5.70
2023-01-25T07:11:22.245Z,6.79
2023-01-25T07:12:22.142Z,6.91
2023-01-25T07:13:22.027Z,7.18
2023-01-25T07:14:21.944Z,6.58
2023-01-25T07:15:21.792Z,9.20
2023-01-25T07:16:21.698Z,9.80
2023-01-25T07:17:21.589Z,10.22
2023-01-25T07:18:21.476Z,9.63
2023-01-25T07:19:21.370Z,10.60
2023-01-25T07:20:21.302Z,12.17
2023-01-25T07:21:21.142Z,12.57
2023-01-25T07:22:21.056Z,12.20
2023-01-25T07:23:20.931Z,13.51
2023-01-25T07:24:20.889Z,11.94
2023-01-25T07:25:20.702Z,12.04
2023-01-25T07:26:20.600Z,10.50
2023-01-25T07:27:20.491Z,12.38
2023-01-25T07:28:20.371Z,11.74
2023-01-25T07:29:20.300Z,11.20
2023-01-25T07:30:20.141Z,11.72
2023-01-25T07:31:20.068Z,10.62
2023-01-25T07:32:19.927Z,11.90
2023-01-25T07:33:19.818Z,11.28
2023-01-25T07:34:19.759Z,10.40
2023-01-25T07:35:19.589Z,10.33
2023-01-25T07:36:19.471Z,9.77
2023-01-25T07:37:19.334Z,9.30
2023-01-25T07:38:19.229Z,10.30
2023-01-25T07:39:19.104Z,9.99
2023-01-25T07:40:19.015Z,9.85
2023-01-25T07:41:18.874Z,9.52
2023-01-25T07:42:18.751Z,9.54
2023-01-25T07:43:18.662Z,8.61
2023-01-25T07:44:18.532Z,9.51
2023-01-25T07:45:18.428Z,8.90
2023-01-25T07:46:18.311Z,9.30
2023-01-25T07:47:18.191Z,8.78
2023-01-25T07:48:18.137Z,8.42
2023-01-25T07:49:17.995Z,8.31
2023-01-25T07:50:17.924Z,7.84
2023-01-25T07:51:17.737Z,7.96
2023-01-25T07:52:17.620Z,8.14
2023-01-25T07:53:17.514Z,7.20
2023-01-25T07:54:17.419Z,7.11
2023-01-25T07:55:17.621Z,7.81
2023-01-25T07:56:17.147Z,7.50
2023-01-25T07:57:17.033Z,7.61
2023-01-25T07:58:16.916Z,7.17
2023-01-25T07:59:16.848Z,7.65
2023-01-25T08:00:16.958Z,7.36
2023-01-25T08:01:16.673Z,6.66
2023-01-25T08:02:16.650Z,7.12
2023-01-25T08:03:16.365Z,6.41
2023-01-25T08:04:16.227Z,7.51
2023-01-25T08:05:16.119Z,7.21
2023-01-25T08:06:16.013Z,7.30
2023-01-25T08:07:15.902Z,7.09
2023-01-25T08:08:15.803Z,6.43
2023-01-25T08:09:15.740Z,6.80
2023-01-25T08:10:15.746Z,5.99
2023-01-25T08:11:15.465Z,6.86
2023-01-25T08:12:15.326Z,5.64
2023-01-25T08:13:15.195Z,5.73
2023-01-25T08:14:15.117Z,6.19
2023-01-25T09:10:08.986Z,11.87
2023-01-25T09:11:08.476Z,9.59
2023-01-25T09:12:08.414Z,9.41
2023-01-25T09:13:08.850Z,10.43
2023-01-25T09:14:08.147Z,9.34
2023-01-25T09:15:08.519Z,9.77
2023-01-25T09:16:07.984Z,8.68
2023-01-25T09:17:07.981Z,8.46
2023-01-25T09:19:07.560Z,8.20
2023-01-25T09:20:07.778Z,8.63
2023-01-25T09:21:07.293Z,8.69
2023-01-25T09:22:07.171Z,8.22
2023-01-25T09:23:07.073Z,8.93
2023-01-25T09:24:08.066Z,9.18
2023-01-25T09:25:06.919Z,7.88
2023-01-25T09:26:06.728Z,7.78
2023-01-25T09:27:06.588Z,8.91
2023-01-25T09:28:06.546Z,8.98
2023-01-25T09:29:06.624Z,8.53
2023-01-25T09:30:10.885Z,8.63
2023-01-25T09:31:21.221Z,8.77
2023-01-25T09:32:07.132Z,9.01
2023-01-25T09:33:05.924Z,8.58
2023-01-25T09:34:05.784Z,9.58
2023-01-25T09:35:05.688Z,10.31
2023-01-25T09:36:05.556Z,9.42
2023-01-25T09:37:05.413Z,8.64
2023-01-25T09:38:05.326Z,9.22
2023-01-25T09:39:05.190Z,9.29
2023-01-25T09:40:05.078Z,10.68
2023-01-25T09:41:04.938Z,10.54
2023-01-25T09:42:14.138Z,12.43
2023-01-25T09:43:05.732Z,14.29
2023-01-25T09:44:14.236Z,15.16
2023-01-25T09:45:05.457Z,17.07
2023-01-25T09:46:04.370Z,21.17
2023-01-25T09:47:04.221Z,21.54
2023-01-25T09:48:04.100Z,22.23
2023-01-25T09:49:07.703Z,24.53
2023-01-25T09:50:03.926Z,23.07
2023-01-25T09:51:03.767Z,22.32
2023-01-25T09:52:03.639Z,20.13
2023-01-25T09:53:03.501Z,21.16
2023-01-25T09:54:03.358Z,18.59
2023-01-25T09:55:03.253Z,17.73
2023-01-25T09:56:03.114Z,15.49
2023-01-25T09:57:02.985Z,14.03
2023-01-25T09:58:02.891Z,15.73
2023-01-25T09:59:02.738Z,16.28
2023-01-25T10:00:03.230Z,15.81
2023-01-25T10:01:04.385Z,14.14
2023-01-25T10:02:02.468Z,14.79
2023-01-25T10:03:02.406Z,14.75
2023-01-25T10:04:02.144Z,12.82
2023-01-25T10:05:02.098Z,12.54
2023-01-25T10:06:01.926Z,13.08
2023-01-25T10:07:02.128Z,13.11
2023-01-25T10:08:01.693Z,13.35
2023-01-25T10:09:01.568Z,12.84
2023-01-25T10:10:01.434Z,12.68
2023-01-25T10:11:01.310Z,12.05
2023-01-25T10:12:01.207Z,10.90
2023-01-25T10:13:01.073Z,11.19
2023-01-25T10:14:00.998Z,11.37
2023-01-25T10:15:00.912Z,9.40
2023-01-25T10:16:00.726Z,8.59
2023-01-25T10:17:00.639Z,8.47
2023-01-25T10:18:00.496Z,8.17
2023-01-25T10:19:00.377Z,7.82
2023-01-25T10:20:00.277Z,7.71
2023-01-25T10:21:00.143Z,7.85
2023-01-25T10:22:59.923Z,7.77
2023-01-25T11:01:56.534Z,5.81
2023-01-25T11:03:56.379Z,5.91
2023-01-25T11:04:56.321Z,6.54
2023-01-25T11:05:56.219Z,5.97
2023-01-25T11:06:56.087Z,5.52
2023-01-25T11:07:55.980Z,5.66
2023-01-25T11:08:55.862Z,6.15
2023-01-25T11:09:55.745Z,6.19
2023-01-25T11:10:55.639Z,5.82
2023-01-25T11:11:55.507Z,6.75
2023-01-25T11:12:55.383Z,6.95
2023-01-25T11:13:55.272Z,6.50
2023-01-25T11:14:55.173Z,5.92
2023-01-25T11:15:55.050Z,6.39
2023-01-25T11:58:50.240Z,4.91
2023-01-25T11:59:50.143Z,4.40
2023-01-25T12:00:50.003Z,4.42
2023-01-25T12:02:49.913Z,4.53
2023-01-25T12:03:49.732Z,4.59
2023-01-25T12:04:49.540Z,4.70
2023-01-25T12:05:49.423Z,4.30
2023-01-25T12:06:49.329Z,4.66
2023-01-25T12:07:49.210Z,4.48
2023-01-25T12:08:49.076Z,4.03
2023-01-25T12:09:48.951Z,4.93
2023-01-25T12:10:48.852Z,4.63
2023-01-25T12:11:48.772Z,4.36
2023-01-25T12:12:48.624Z,4.44
2023-01-25T12:13:48.554Z,4.75
2023-01-25T12:14:48.378Z,4.21
2023-01-25T12:15:48.290Z,4.52
2023-01-25T12:16:48.159Z,3.59
2023-01-25T12:17:48.044Z,4.33
2023-01-25T12:18:47.916Z,4.63
2023-01-25T12:19:47.795Z,3.90
2023-01-25T12:20:47.709Z,3.19
2023-01-25T12:21:47.585Z,4.03
2023-01-25T12:22:47.461Z,3.91
2023-01-25T12:23:47.384Z,3.33
2023-01-25T12:24:47.222Z,3.61
2023-01-25T12:25:47.110Z,4.66
2023-01-25T12:26:47.018Z,3.71
2023-01-25T12:27:46.878Z,4.41
2023-01-25T12:28:46.790Z,3.48
2023-01-25T12:29:46.688Z,4.30
2023-01-25T12:30:46.580Z,4.35
2023-01-25T12:31:46.479Z,4.60
2023-01-25T12:32:46.351Z,3.93
2023-01-25T12:33:46.205Z,4.28
2023-01-25T12:34:46.109Z,4.23
2023-01-25T12:35:45.979Z,5.55
2023-01-25T12:36:45.875Z,4.14
2023-01-25T12:37:45.763Z,3.89
2023-01-25T12:38:45.651Z,4.74
2023-01-25T12:39:45.533Z,4.92
2023-01-25T12:40:45.461Z,4.75
2023-01-25T12:41:45.329Z,5.22
2023-01-25T12:42:45.195Z,4.56
2023-01-25T12:43:45.087Z,4.86
2023-01-25T12:44:45.002Z,5.40
2023-01-25T12:45:44.853Z,4.54
2023-01-25T12:46:44.788Z,4.64
2023-01-25T12:47:44.623Z,4.80
2023-01-25T12:48:44.528Z,4.78
2023-01-25T12:49:44.403Z,5.18
2023-01-25T12:50:44.287Z,4.80
2023-01-25T12:51:44.174Z,4.65
2023-01-25T12:52:44.070Z,4.43
2023-01-25T12:53:43.936Z,4.57
2023-01-25T12:54:43.817Z,4.62
2023-01-25T12:55:43.720Z,5.02
2023-01-25T12:56:43.612Z,4.71
2023-01-25T12:57:43.503Z,4.30
2023-01-25T12:58:43.362Z,4.68
2023-01-25T12:59:43.244Z,4.69
2023-01-25T13:00:43.146Z,4.46
2023-01-25T13:01:43.044Z,4.81
2023-01-25T13:02:42.906Z,5.11
2023-01-25T13:03:42.773Z,4.48
2023-01-25T13:04:42.683Z,4.35
2023-01-25T13:05:42.546Z,5.23
2023-01-25T13:06:42.434Z,4.61
2023-01-25T13:07:42.331Z,5.65
2023-01-25T13:08:42.194Z,3.86
2023-01-25T13:09:42.076Z,5.03
2023-01-25T13:10:41.983Z,5.08
2023-01-25T13:11:41.844Z,4.70
2023-01-25T13:12:41.731Z,4.91
2023-01-25T13:13:41.596Z,5.16
2023-01-25T13:14:41.475Z,4.31
2023-01-25T13:15:41.451Z,4.80
2023-01-25T13:16:41.237Z,4.60
2023-01-25T13:17:41.157Z,5.10
2023-01-25T13:18:41.002Z,4.97
2023-01-25T13:19:40.897Z,4.57
2023-01-25T13:20:40.767Z,3.64
2023-01-25T13:21:40.634Z,4.97
2023-01-25T13:22:42.715Z,4.84
2023-01-25T13:23:40.390Z,4.99
2023-01-25T13:24:40.288Z,4.38
2023-01-25T13:25:40.185Z,5.18
2023-01-25T13:26:40.050Z,5.20
2023-01-25T13:27:39.986Z,4.79
2023-01-25T13:28:39.863Z,4.59
2023-01-25T13:29:39.760Z,4.28
2023-01-25T13:30:39.668Z,5.07
2023-01-25T13:31:51.912Z,4.60
2023-01-25T13:32:40.400Z,4.40
2023-01-25T13:33:39.310Z,4.33
2023-01-25T13:34:39.316Z,4.05
2023-01-25T13:35:39.098Z,4.74
2023-01-25T13:36:38.882Z,4.58
2023-01-25T13:37:38.766Z,4.49
2023-01-25T13:38:38.639Z,4.70
2023-01-25T13:39:38.625Z,4.38
2023-01-25T13:40:38.429Z,5.33
2023-01-25T13:41:38.286Z,4.33
2023-01-25T13:42:38.181Z,4.54
2023-01-25T13:43:38.120Z,4.47
2023-01-25T13:44:37.942Z,4.59
2023-01-25T13:45:37.816Z,4.11
2023-01-25T13:46:37.694Z,4.72
2023-01-25T13:47:37.633Z,3.81
2023-01-25T13:48:38.331Z,4.36
2023-01-25T13:49:37.363Z,4.37
2023-01-25T13:50:37.290Z,4.66
2023-01-25T13:51:37.113Z,4.18
2023-01-25T13:52:37.027Z,4.72
2023-01-25T13:53:36.887Z,4.60
2023-01-25T13:54:36.789Z,4.77
2023-01-25T13:55:36.657Z,4.71
2023-01-25T13:56:36.553Z,3.57
2023-01-25T16:29:26.342Z,4.49
2023-01-25T16:30:26.373Z,5.19
2023-01-25T16:31:32.792Z,5.68
2023-01-25T16:32:27.261Z,4.66
2023-01-25T16:33:26.226Z,5.16
2023-01-25T16:34:26.201Z,4.64
2023-01-25T16:35:26.161Z,4.46
2023-01-25T16:36:26.126Z,4.30
2023-01-25T16:37:26.096Z,4.73
2023-01-25T16:38:26.057Z,4.97
2023-01-25T16:39:26.034Z,4.82
2023-01-25T16:40:26.010Z,4.63
2023-01-25T16:41:25.970Z,5.07
2023-01-25T16:42:25.930Z,4.79
2023-01-25T16:43:31.736Z,4.70
2023-01-25T16:45:25.855Z,4.43
2023-01-25T16:46:25.834Z,4.66
2023-01-25T16:47:27.686Z,5.39
2023-01-25T16:48:25.759Z,4.88
2023-01-25T16:49:25.725Z,5.53
2023-01-25T16:50:25.693Z,4.99
2023-01-25T16:51:25.664Z,4.23
2023-01-25T16:52:25.605Z,4.63
2023-01-25T16:53:25.579Z,3.95
2023-01-25T16:54:25.547Z,4.23
2023-01-25T16:55:25.516Z,5.10
2023-01-25T16:56:25.482Z,4.56
2023-01-25T16:57:25.445Z,4.70
2023-01-25T16:58:25.412Z,4.96
2023-01-25T16:59:25.371Z,4.53
2023-01-25T17:00:25.357Z,5.07
2023-01-25T17:01:25.393Z,4.12
2023-01-25T17:02:25.462Z,4.77
2023-01-25T17:03:25.429Z,4.72
2023-01-25T17:04:25.455Z,4.48
2023-01-25T17:05:25.703Z,4.84
2023-01-25T17:06:25.510Z,4.52
2023-01-25T17:07:25.532Z,4.73
2023-01-25T17:08:25.552Z,5.24
2023-01-25T17:09:25.798Z,4.82
2023-01-25T17:10:25.604Z,4.69
2023-01-25T17:11:25.632Z,4.26
2023-01-25T17:12:25.667Z,4.53
2023-01-25T17:13:25.681Z,4.11
2023-01-25T17:14:25.713Z,4.56
2023-01-25T17:15:25.743Z,5.32
2023-01-25T17:16:25.775Z,4.39
2023-01-25T17:17:25.797Z,4.59
2023-01-25T17:18:25.818Z,4.89
2023-01-25T17:19:25.846Z,4.41
2023-01-25T17:20:25.881Z,4.34
2023-01-25T17:21:25.915Z,4.45
2023-01-25T17:22:25.942Z,4.47
2023-01-25T17:23:25.977Z,3.82
2023-01-25T17:24:26.067Z,5.03
2023-01-25T17:25:26.004Z,4.52
2023-01-25T17:26:26.025Z,4.22
2023-01-25T17:27:26.075Z,4.76
2023-01-25T17:28:26.081Z,3.82
2023-01-25T17:29:26.107Z,4.21
2023-01-25T17:30:26.141Z,4.37
2023-01-25T17:31:26.254Z,4.57
2023-01-25T17:32:26.184Z,4.35
2023-01-25T17:33:26.189Z,4.83
2023-01-25T17:34:26.212Z,4.40
2023-01-25T17:35:26.252Z,4.87
2023-01-25T17:36:26.251Z,5.25
2023-01-25T17:37:26.311Z,4.83
2023-01-25T17:38:26.285Z,4.22
2023-01-25T17:39:26.303Z,4.61
2023-01-25T17:40:26.332Z,4.18
2023-01-25T17:41:26.384Z,4.02
2023-01-25T17:42:26.385Z,4.48
2023-01-25T17:43:26.411Z,3.92
2023-01-25T17:44:26.462Z,4.53
2023-01-25T17:45:26.456Z,4.47
2023-01-25T17:46:26.577Z,4.42
2023-01-25T17:47:26.512Z,4.02
2023-01-25T17:48:26.542Z,4.65
2023-01-25T17:49:26.565Z,4.49
2023-01-25T17:50:26.616Z,4.67
2023-01-25T17:51:26.620Z,4.46
2023-01-25T17:52:26.645Z,4.19
2023-01-25T17:53:26.677Z,3.87
2023-01-25T17:54:26.706Z,4.26
2023-01-25T17:55:26.728Z,3.34
2023-01-25T17:56:26.768Z,3.84
2023-01-25T17:57:26.799Z,4.25
2023-01-25T17:58:26.805Z,4.99
2023-01-25T17:59:26.831Z,3.91
2023-01-25T18:00:26.870Z,4.37
2023-01-25T18:01:26.930Z,4.41
2023-01-25T18:02:26.933Z,4.07
2023-01-25T18:03:26.918Z,3.92
2023-01-25T18:04:26.957Z,4.13
2023-01-25T18:05:26.977Z,4.75
2023-01-25T18:06:26.993Z,4.61
2023-01-25T18:07:27.029Z,4.39
2023-01-25T18:08:27.052Z,4.06
2023-01-25T18:09:27.088Z,3.96
2023-01-25T18:10:27.117Z,4.52
2023-01-25T18:11:27.142Z,4.37
2023-01-25T18:12:27.184Z,3.49
2023-01-25T18:13:27.202Z,3.86
2023-01-25T18:14:27.205Z,4.14
2023-01-25T18:15:27.229Z,4.87
2023-01-25T18:16:27.251Z,5.05
2023-01-25T18:17:27.275Z,4.34
2023-01-25T18:18:27.322Z,4.22
2023-01-25T18:19:27.373Z,4.74
2023-01-25T18:20:27.353Z,4.13
2023-01-25T18:21:27.372Z,3.88
2023-01-25T18:22:27.401Z,4.48
2023-01-25T18:23:27.460Z,3.86
2023-01-25T18:24:27.552Z,3.76
2023-01-25T18:25:27.496Z,4.13
2023-01-25T18:26:27.525Z,3.80
2023-01-25T18:27:27.556Z,4.80
2023-01-25T18:28:27.578Z,4.18
2023-01-25T18:29:27.647Z,4.17
2023-01-25T18:30:27.637Z,4.75
2023-01-25T18:31:27.823Z,4.19
2023-01-25T18:32:27.744Z,3.76
2023-01-25T18:33:27.743Z,4.19
2023-01-25T18:34:27.786Z,4.30
2023-01-25T18:36:27.785Z,3.93
2023-01-25T21:02:27.069Z,4.10
2023-01-25T21:03:29.750Z,4.26
2023-01-25T21:04:27.015Z,3.88
2023-01-25T21:05:26.965Z,3.38
2023-01-25T21:06:26.930Z,3.42
2023-01-25T21:07:26.915Z,4.22
2023-01-25T21:08:26.869Z,3.56
2023-01-25T21:09:26.839Z,3.79
2023-01-25T21:10:26.828Z,4.47
2023-01-25T21:11:26.776Z,3.93
2023-01-25T21:12:26.760Z,3.68
2023-01-25T21:13:26.713Z,3.92
2023-01-25T21:14:26.674Z,3.67
2023-01-25T21:15:26.643Z,4.03
2023-01-25T21:16:26.656Z,3.88
2023-01-25T21:17:26.588Z,3.70
2023-01-25T21:18:26.546Z,3.84
2023-01-25T21:19:26.629Z,3.84
2023-01-25T21:20:26.471Z,4.00
2023-01-25T21:21:26.455Z,4.28
2023-01-25T21:22:26.516Z,3.42
2023-01-25T21:23:26.371Z,4.62
2023-01-25T21:24:26.413Z,3.54
2023-01-25T21:25:26.347Z,4.51
2023-01-25T21:26:26.263Z,3.74
2023-01-25T21:27:26.232Z,4.31
2023-01-25T21:28:26.190Z,4.37
2023-01-25T21:29:26.157Z,4.25
2023-01-25T21:30:26.147Z,4.41
2023-01-25T21:31:26.159Z,3.65
2023-01-25T21:32:26.059Z,4.11
2023-01-25T21:33:26.023Z,3.55
2023-01-25T21:34:25.994Z,4.43
2023-01-25T21:35:25.964Z,4.58
2023-01-25T21:36:25.950Z,4.13
2023-01-25T21:37:25.887Z,3.78
2023-01-25T21:38:25.860Z,4.40
2023-01-25T21:39:25.834Z,4.26
2023-01-25T21:40:25.802Z,3.50
2023-01-25T21:41:25.776Z,4.51
2023-01-25T21:42:25.722Z,3.98
2023-01-25T21:43:25.686Z,4.20
2023-01-25T21:44:25.636Z,4.29
2023-01-25T21:45:25.657Z,3.85
2023-01-25T21:46:25.627Z,3.98
2023-01-25T21:47:30.774Z,4.27
2023-01-25T21:48:26.493Z,4.84
2023-01-25T21:49:25.467Z,4.10
2023-01-25T21:50:25.432Z,4.85
2023-01-25T21:51:25.395Z,4.37
2023-01-25T21:52:25.334Z,3.60
2023-01-25T21:53:25.305Z,3.88
2023-01-25T21:54:25.284Z,3.90
2023-01-25T21:55:25.250Z,4.33
2023-01-25T21:56:25.226Z,4.38
2023-01-25T21:57:25.185Z,3.89
2023-01-25T21:58:25.141Z,4.09
2023-01-25T21:59:25.113Z,4.48
2023-01-25T22:00:25.097Z,3.67
2023-01-25T22:01:25.075Z,4.16
2023-01-25T22:02:25.048Z,4.71
2023-01-25T22:03:24.973Z,3.94
2023-01-25T22:04:24.947Z,4.26
2023-01-25T22:05:24.885Z,4.78
2023-01-25T22:06:24.844Z,3.90
2023-01-25T22:07:24.812Z,4.12
2023-01-25T22:08:24.781Z,3.75
2023-01-25T22:09:24.746Z,3.95
2023-01-25T22:10:24.707Z,3.81
2023-01-25T22:11:24.681Z,4.33
2023-01-25T22:12:24.614Z,4.63
2023-01-25T22:13:24.582Z,4.54
2023-01-25T22:14:24.554Z,4.48
2023-01-25T22:15:24.528Z,3.94
2023-01-25T22:16:24.494Z,4.00
2023-01-25T22:17:24.458Z,3.94
2023-01-25T22:18:24.433Z,4.67
2023-01-25T22:19:24.367Z,3.88
2023-01-25T22:20:24.324Z,4.36
2023-01-25T22:21:24.287Z,4.01
2023-01-25T22:22:24.241Z,4.21
2023-01-25T22:23:24.199Z,4.68
2023-01-25T22:24:24.220Z,3.88
2023-01-25T22:25:24.122Z,4.06
2023-01-25T22:26:24.125Z,4.02
2023-01-25T22:27:24.056Z,4.49
2023-01-25T22:28:24.040Z,4.30
2023-01-25T22:29:24.011Z,4.75
2023-01-25T22:30:23.960Z,3.73
2023-01-25T22:31:24.000Z,4.01
2023-01-25T22:32:23.904Z,4.08
2023-01-25T22:33:23.864Z,4.30
2023-01-25T22:34:23.830Z,4.65
2023-01-25T22:35:23.817Z,4.55
2023-01-25T22:36:23.782Z,4.51
2023-01-25T22:37:23.736Z,4.49
2023-01-25T22:38:23.713Z,4.26
2023-01-25T22:39:23.681Z,3.84
2023-01-25T22:40:23.641Z,4.83
2023-01-25T22:41:23.603Z,4.04
2023-01-25T22:42:23.547Z,4.91
2023-01-25T22:43:23.505Z,4.51
2023-01-25T22:44:23.489Z,4.37
2023-01-25T22:45:23.441Z,4.70
2023-01-25T22:46:23.476Z,4.36
2023-01-25T22:47:23.379Z,3.81
2023-01-25T22:48:23.340Z,4.45
2023-01-25T22:49:23.299Z,4.51
2023-01-25T22:50:23.265Z,3.82
2023-01-25T22:51:25.320Z,4.77
2023-01-25T22:52:23.204Z,4.50
2023-01-25T22:53:23.141Z,5.21
2023-01-25T22:54:23.123Z,4.33
2023-01-25T22:55:23.062Z,4.12
2023-01-25T22:56:23.021Z,4.41
2023-01-25T22:57:22.983Z,4.15
2023-01-25T22:58:22.949Z,4.44
2023-01-25T22:59:22.914Z,3.85
2023-01-25T23:00:22.886Z,4.88
2023-01-25T23:01:22.935Z,4.87
2023-01-25T23:02:22.936Z,4.82
2023-01-25T23:03:22.970Z,4.17
2023-01-25T23:04:22.998Z,4.65
2023-01-25T23:05:22.991Z,4.77
2023-01-25T23:06:23.026Z,3.56
2023-01-25T23:07:23.044Z,3.77
2023-01-25T23:08:23.072Z,4.08
2023-01-25T23:09:23.111Z,5.71
2023-01-25T23:10:23.110Z,4.41
2023-01-25T23:11:23.141Z,4.26
2023-01-25T23:12:23.154Z,4.89
2023-01-25T23:13:23.177Z,5.10
2023-01-25T23:14:23.191Z,4.26
2023-01-25T23:15:23.215Z,4.18
2023-01-25T23:16:23.268Z,4.47
2023-01-25T23:17:23.286Z,4.24
2023-01-25T23:18:23.302Z,4.23
2023-01-25T23:19:23.315Z,4.13
2023-01-25T23:20:23.316Z,4.20
2023-01-25T23:21:23.325Z,4.19
2023-01-25T23:22:23.392Z,4.15
2023-01-25T23:23:23.366Z,4.36
2023-01-25T23:24:23.404Z,4.89
2023-01-25T23:25:23.404Z,4.71
2023-01-25T23:26:23.410Z,4.67
